sensor_id;sensor_type;location;lat;lon;timestamp;pressure;altitude;pressure_sealevel;temperature;humidity
8061;BME280;4073;42.626;25.386;2024-03-02T00:00:37;96803.44;;;8.02;100.00
8061;BME280;4073;42.626;25.386;2024-03-02T00:03:03;96803.97;;;7.99;100.00
8061;BME280;4073;42.626;25.386;2024-03-02T00:05:29;96808.72;;;7.97;100.00
8061;BME280;4073;42.626;25.386;2024-03-02T00:07:56;96810.84;;;7.90;100.00
8061;BME280;4073;42.626;25.386;2024-03-02T00:10:25;96807.13;;;7.86;100.00
8061;BME280;4073;42.626;25.386;2024-03-02T00:12:55;96815.09;;;7.86;100.00
8061;BME280;4073;42.626;25.386;2024-03-02T00:18:10;96815.91;;;7.92;100.00
8061;BME280;4073;42.626;25.386;2024-03-02T00:20:37;96803.91;;;7.84;100.00
8061;BME280;4073;42.626;25.386;2024-03-02T00:23:04;96816.19;;;7.85;100.00
8061;BME280;4073;42.626;25.386;2024-03-02T00:25:53;96820.97;;;7.88;100.00
8061;BME280;4073;42.626;25.386;2024-03-02T00:28:21;96815.66;;;7.88;100.00
8061;BME280;4073;42.626;25.386;2024-03-02T00:31:12;96807.41;;;7.90;100.00
8061;BME280;4073;42.626;25.386;2024-03-02T00:33:42;96810.59;;;7.92;100.00
8061;BME280;4073;42.626;25.386;2024-03-02T00:36:09;96807.66;;;7.93;100.00
8061;BME280;4073;42.626;25.386;2024-03-02T00:38:44;96811.66;;;7.91;100.00
8061;BME280;4073;42.626;25.386;2024-03-02T00:41:16;96815.41;;;7.90;100.00
8061;BME280;4073;42.626;25.386;2024-03-02T00:43:50;96817.75;;;7.86;100.00
8061;BME280;4073;42.626;25.386;2024-03-02T00:46:19;96807.63;;;7.83;100.00
8061;BME280;4073;42.626;25.386;2024-03-02T00:48:52;96808.44;;;7.84;100.00
8061;BME280;4073;42.626;25.386;2024-03-02T00:51:20;96807.66;;;7.88;100.00
8061;BME280;4073;42.626;25.386;2024-03-02T00:53:45;96807.38;;;7.85;100.00
8061;BME280;4073;42.626;25.386;2024-03-02T00:56:11;96788.22;;;7.73;100.00
8061;BME280;4073;42.626;25.386;2024-03-02T00:58:40;96804.19;;;7.78;100.00
8061;BME280;4073;42.626;25.386;2024-03-02T01:01:06;96805.25;;;7.77;100.00
8061;BME280;4073;42.626;25.386;2024-03-02T01:03:32;96794.84;;;7.75;100.00
8061;BME280;4073;42.626;25.386;2024-03-02T01:05:58;96793.69;;;7.46;100.00
8061;BME280;4073;42.626;25.386;2024-03-02T01:08:24;96791.00;;;7.31;100.00
8061;BME280;4073;42.626;25.386;2024-03-02T01:10:49;96793.13;;;7.34;100.00
8061;BME280;4073;42.626;25.386;2024-03-02T01:13:15;96789.41;;;7.40;100.00
8061;BME280;4073;42.626;25.386;2024-03-02T01:15:40;96797.38;;;7.40;100.00
8061;BME280;4073;42.626;25.386;2024-03-02T01:18:06;96796.91;;;7.48;100.00
8061;BME280;4073;42.626;25.386;2024-03-02T01:20:32;96791.31;;;7.50;100.00
8061;BME280;4073;42.626;25.386;2024-03-02T01:22:57;96784.13;;;7.50;100.00
8061;BME280;4073;42.626;25.386;2024-03-02T01:25:23;96786.53;;;7.52;100.00
8061;BME280;4073;42.626;25.386;2024-03-02T01:27:48;96781.75;;;7.54;100.00
8061;BME280;4073;42.626;25.386;2024-03-02T01:30:14;96780.94;;;7.53;100.00
8061;BME280;4073;42.626;25.386;2024-03-02T01:32:39;96776.66;;;7.42;100.00
8061;BME280;4073;42.626;25.386;2024-03-02T01:35:05;96773.75;;;7.39;100.00
8061;BME280;4073;42.626;25.386;2024-03-02T01:37:32;96776.88;;;7.26;100.00
8061;BME280;4073;42.626;25.386;2024-03-02T01:39:57;96769.91;;;7.15;100.00
8061;BME280;4073;42.626;25.386;2024-03-02T01:42:24;96773.69;;;7.29;100.00
8061;BME280;4073;42.626;25.386;2024-03-02T01:44:49;96772.38;;;7.36;100.00
8061;BME280;4073;42.626;25.386;2024-03-02T01:47:15;96766.56;;;7.44;100.00
8061;BME280;4073;42.626;25.386;2024-03-02T01:49:40;96770.56;;;7.47;100.00
8061;BME280;4073;42.626;25.386;2024-03-02T01:52:06;96773.47;;;7.45;100.00
8061;BME280;4073;42.626;25.386;2024-03-02T01:54:32;96774.03;;;7.52;100.00
8061;BME280;4073;42.626;25.386;2024-03-02T01:56:59;96763.69;;;7.56;100.00
8061;BME280;4073;42.626;25.386;2024-03-02T01:59:24;96763.69;;;7.56;100.00
8061;BME280;4073;42.626;25.386;2024-03-02T02:01:50;96754.34;;;7.53;100.00
8061;BME280;4073;42.626;25.386;2024-03-02T02:04:16;96758.88;;;7.58;100.00
8061;BME280;4073;42.626;25.386;2024-03-02T02:06:43;96759.19;;;7.61;100.00
8061;BME280;4073;42.626;25.386;2024-03-02T02:09:09;96760.47;;;7.54;100.00
8061;BME280;4073;42.626;25.386;2024-03-02T02:11:35;96758.06;;;7.52;100.00
8061;BME280;4073;42.626;25.386;2024-03-02T02:14:00;96756.47;;;7.41;100.00
8061;BME280;4073;42.626;25.386;2024-03-02T02:16:26;96764.69;;;7.40;100.00
8061;BME280;4073;42.626;25.386;2024-03-02T02:18:51;96766.28;;;7.41;100.00
8061;BME280;4073;42.626;25.386;2024-03-02T02:21:17;96757.50;;;7.40;100.00
8061;BME280;4073;42.626;25.386;2024-03-02T02:23:42;96765.22;;;7.37;100.00
8061;BME280;4073;42.626;25.386;2024-03-02T02:26:12;96767.63;;;7.38;100.00
8061;BME280;4073;42.626;25.386;2024-03-02T02:28:37;96748.41;;;7.26;100.00
8061;BME280;4073;42.626;25.386;2024-03-02T02:31:03;96764.66;;;7.35;100.00
8061;BME280;4073;42.626;25.386;2024-03-02T02:33:29;96778.22;;;7.33;100.00
8061;BME280;4073;42.626;25.386;2024-03-02T02:35:54;96765.72;;;7.34;100.00
8061;BME280;4073;42.626;25.386;2024-03-02T02:38:20;96776.88;;;7.31;100.00
8061;BME280;4073;42.626;25.386;2024-03-02T02:40:45;96774.47;;;7.29;100.00
8061;BME280;4073;42.626;25.386;2024-03-02T02:43:11;96767.03;;;7.26;100.00
8061;BME280;4073;42.626;25.386;2024-03-02T02:45:37;96764.88;;;7.23;100.00
8061;BME280;4073;42.626;25.386;2024-03-02T02:48:02;96769.38;;;7.18;100.00
8061;BME280;4073;42.626;25.386;2024-03-02T02:50:28;96770.16;;;7.13;100.00
8061;BME280;4073;42.626;25.386;2024-03-02T02:52:54;96768.31;;;7.14;100.00
8061;BME280;4073;42.626;25.386;2024-03-02T02:55:19;96769.13;;;7.14;100.00
8061;BME280;4073;42.626;25.386;2024-03-02T02:57:45;96770.69;;;7.15;100.00
8061;BME280;4073;42.626;25.386;2024-03-02T03:00:15;96770.69;;;7.15;100.00
8061;BME280;4073;42.626;25.386;2024-03-02T03:02:42;96779.75;;;7.19;100.00
8061;BME280;4073;42.626;25.386;2024-03-02T03:05:12;96777.34;;;7.18;100.00
8061;BME280;4073;42.626;25.386;2024-03-02T03:07:39;96777.59;;;7.16;100.00
8061;BME280;4073;42.626;25.386;2024-03-02T03:10:06;96770.19;;;7.18;100.00
8061;BME280;4073;42.626;25.386;2024-03-02T03:12:32;96776.31;;;7.19;100.00
8061;BME280;4073;42.626;25.386;2024-03-02T03:14:58;96772.84;;;7.23;100.00
8061;BME280;4073;42.626;25.386;2024-03-02T03:17:23;96768.59;;;7.22;100.00
8061;BME280;4073;42.626;25.386;2024-03-02T03:19:50;96772.06;;;7.23;100.00
8061;BME280;4073;42.626;25.386;2024-03-02T03:22:15;96783.53;;;7.28;100.00
8061;BME280;4073;42.626;25.386;2024-03-02T03:24:41;96780.06;;;7.23;100.00
8061;BME280;4073;42.626;25.386;2024-03-02T03:27:06;96781.91;;;7.22;100.00
8061;BME280;4073;42.626;25.386;2024-03-02T03:29:32;96779.78;;;7.24;100.00
8061;BME280;4073;42.626;25.386;2024-03-02T03:31:58;96777.13;;;7.29;100.00
8061;BME280;4073;42.626;25.386;2024-03-02T03:34:23;96777.66;;;7.26;100.00
8061;BME280;4073;42.626;25.386;2024-03-02T03:36:48;96778.72;;;7.30;100.00
8061;BME280;4073;42.626;25.386;2024-03-02T03:39:14;96783.28;;;7.35;100.00
8061;BME280;4073;42.626;25.386;2024-03-02T03:41:42;96777.19;;;7.34;100.00
8061;BME280;4073;42.626;25.386;2024-03-02T03:44:08;96765.75;;;7.39;100.00
8061;BME280;4073;42.626;25.386;2024-03-02T03:46:33;96768.41;;;7.39;100.00
8061;BME280;4073;42.626;25.386;2024-03-02T03:48:59;96764.44;;;7.41;100.00
8061;BME280;4073;42.626;25.386;2024-03-02T03:51:24;96764.19;;;7.43;100.00
8061;BME280;4073;42.626;25.386;2024-03-02T03:53:50;96768.44;;;7.44;100.00
8061;BME280;4073;42.626;25.386;2024-03-02T03:56:15;96758.31;;;7.41;100.00
8061;BME280;4073;42.626;25.386;2024-03-02T03:58:41;96761.22;;;7.39;100.00
8061;BME280;4073;42.626;25.386;2024-03-02T04:01:07;96751.88;;;7.32;100.00
8061;BME280;4073;42.626;25.386;2024-03-02T04:03:32;96756.41;;;7.31;100.00
8061;BME280;4073;42.626;25.386;2024-03-02T04:05:58;96756.41;;;7.31;100.00
8061;BME280;4073;42.626;25.386;2024-03-02T04:08:23;96734.03;;;7.22;100.00
8061;BME280;4073;42.626;25.386;2024-03-02T04:10:49;96756.94;;;7.28;100.00
8061;BME280;4073;42.626;25.386;2024-03-02T04:13:14;96762.00;;;7.30;100.00
8061;BME280;4073;42.626;25.386;2024-03-02T04:15:40;96766.50;;;7.29;100.00
8061;BME280;4073;42.626;25.386;2024-03-02T04:18:08;96765.72;;;7.34;100.00
8061;BME280;4073;42.626;25.386;2024-03-02T04:20:34;96753.75;;;7.36;100.00
8061;BME280;4073;42.626;25.386;2024-03-02T04:22:59;96758.56;;;7.39;100.00
8061;BME280;4073;42.626;25.386;2024-03-02T04:25:25;96758.03;;;7.42;100.00
8061;BME280;4073;42.626;25.386;2024-03-02T04:27:50;96763.63;;;7.41;100.00
8061;BME280;4073;42.626;25.386;2024-03-02T04:30:16;96752.97;;;7.41;100.00
8061;BME280;4073;42.626;25.386;2024-03-02T04:32:41;96762.81;;;7.40;100.00
8061;BME280;4073;42.626;25.386;2024-03-02T04:35:11;96768.94;;;7.41;100.00
8061;BME280;4073;42.626;25.386;2024-03-02T04:37:37;96763.88;;;7.39;100.00
8061;BME280;4073;42.626;25.386;2024-03-02T04:40:04;96773.44;;;7.35;100.00
8061;BME280;4073;42.626;25.386;2024-03-02T04:42:33;96767.31;;;7.35;100.00
8061;BME280;4073;42.626;25.386;2024-03-02T04:44:58;96774.53;;;7.34;100.00
8061;BME280;4073;42.626;25.386;2024-03-02T04:47:24;96770.22;;;7.33;100.00
8061;BME280;4073;42.626;25.386;2024-03-02T04:49:49;96767.56;;;7.28;100.00
8061;BME280;4073;42.626;25.386;2024-03-02T04:52:16;96772.63;;;7.35;100.00
8061;BME280;4073;42.626;25.386;2024-03-02T04:54:41;96770.22;;;7.33;100.00
8061;BME280;4073;42.626;25.386;2024-03-02T04:57:26;96769.47;;;7.38;100.00
8061;BME280;4073;42.626;25.386;2024-03-02T04:59:51;96767.06;;;7.31;100.00
8061;BME280;4073;42.626;25.386;2024-03-02T05:02:17;96770.75;;;7.30;100.00
8061;BME280;4073;42.626;25.386;2024-03-02T05:04:42;96766.50;;;7.29;100.00
8061;BME280;4073;42.626;25.386;2024-03-02T05:07:08;96778.72;;;7.30;100.00
8061;BME280;4073;42.626;25.386;2024-03-02T05:09:33;96728.91;;;7.01;100.00
8061;BME280;4073;42.626;25.386;2024-03-02T05:11:59;96773.41;;;7.30;100.00
8061;BME280;4073;42.626;25.386;2024-03-02T05:14:42;96762.53;;;7.32;100.00
8061;BME280;4073;42.626;25.386;2024-03-02T05:17:08;96760.16;;;7.35;100.00
8061;BME280;4073;42.626;25.386;2024-03-02T05:19:33;96762.81;;;7.35;100.00
8061;BME280;4073;42.626;25.386;2024-03-02T05:21:59;96763.38;;;7.37;100.00
8061;BME280;4073;42.626;25.386;2024-03-02T05:24:24;96766.81;;;7.38;100.00
8061;BME280;4073;42.626;25.386;2024-03-02T05:26:52;96774.53;;;7.39;100.00
8061;BME280;4073;42.626;25.386;2024-03-02T05:29:18;96769.75;;;7.46;100.00
8061;BME280;4073;42.626;25.386;2024-03-02T05:31:44;96791.84;;;7.47;100.00
8061;BME280;4073;42.626;25.386;2024-03-02T05:34:09;96790.25;;;7.46;100.00
8061;BME280;4073;42.626;25.386;2024-03-02T05:36:35;96791.59;;;7.48;100.00
8061;BME280;4073;42.626;25.386;2024-03-02T05:39:00;96784.38;;;7.49;100.00
8061;BME280;4073;42.626;25.386;2024-03-02T05:41:26;96783.06;;;7.41;100.00
8061;BME280;4073;42.626;25.386;2024-03-02T05:43:52;96788.41;;;7.51;100.00
8061;BME280;4073;42.626;25.386;2024-03-02T05:46:17;96795.56;;;7.51;100.00
8061;BME280;4073;42.626;25.386;2024-03-02T05:48:43;96792.66;;;7.47;100.00
8061;BME280;4073;42.626;25.386;2024-03-02T05:51:08;96800.63;;;7.47;100.00
8061;BME280;4073;42.626;25.386;2024-03-02T05:53:34;96791.59;;;7.53;100.00
8061;BME280;4073;42.626;25.386;2024-03-02T05:56:00;96781.75;;;7.54;100.00
8061;BME280;4073;42.626;25.386;2024-03-02T05:58:25;96796.41;;;7.61;100.00
8061;BME280;4073;42.626;25.386;2024-03-02T06:01:18;96787.09;;;7.64;100.00
8061;BME280;4073;42.626;25.386;2024-03-02T06:03:44;96791.38;;;7.60;100.00
8061;BME280;4073;42.626;25.386;2024-03-02T06:06:09;96808.34;;;7.59;100.00
8061;BME280;4073;42.626;25.386;2024-03-02T06:08:35;96807.28;;;7.50;100.00
8061;BME280;4073;42.626;25.386;2024-03-02T06:11:01;96808.63;;;7.52;100.00
8061;BME280;4073;42.626;25.386;2024-03-02T06:13:26;96795.03;;;7.49;100.00
8061;BME280;4073;42.626;25.386;2024-03-02T06:15:52;96788.94;;;7.48;100.00
8061;BME280;4073;42.626;25.386;2024-03-02T06:18:18;96767.34;;;7.40;100.00
8061;BME280;4073;42.626;25.386;2024-03-02T06:20:43;96784.38;;;7.49;100.00
8061;BME280;4073;42.626;25.386;2024-03-02T06:23:09;96779.88;;;7.49;100.00
8061;BME280;4073;42.626;25.386;2024-03-02T06:25:34;96771.63;;;7.46;100.00
8061;BME280;4073;42.626;25.386;2024-03-02T06:28:00;96767.34;;;7.45;100.00
8061;BME280;4073;42.626;25.386;2024-03-02T06:30:25;96773.47;;;7.45;100.00
8061;BME280;4073;42.626;25.386;2024-03-02T06:32:51;96767.66;;;7.48;100.00
8061;BME280;4073;42.626;25.386;2024-03-02T06:35:16;96786.50;;;7.37;100.00
8061;BME280;4073;42.626;25.386;2024-03-02T06:37:42;96760.97;;;7.41;100.00
8061;BME280;4073;42.626;25.386;2024-03-02T06:40:08;96763.09;;;7.44;100.00
8061;BME280;4073;42.626;25.386;2024-03-02T06:42:34;96777.19;;;7.39;100.00
8061;BME280;4073;42.626;25.386;2024-03-02T06:45:00;96771.03;;;7.34;100.00
8061;BME280;4073;42.626;25.386;2024-03-02T06:47:26;96767.88;;;7.42;100.00
8061;BME280;4073;42.626;25.386;2024-03-02T06:49:51;96793.44;;;7.48;100.00
8061;BME280;4073;42.626;25.386;2024-03-02T06:52:18;96803.03;;;7.54;100.00
8061;BME280;4073;42.626;25.386;2024-03-02T06:54:44;96787.88;;;7.54;100.00
8061;BME280;4073;42.626;25.386;2024-03-02T06:57:09;96806.00;;;7.62;100.00
8061;BME280;4073;42.626;25.386;2024-03-02T06:59:35;96804.41;;;7.66;100.00
8061;BME280;4073;42.626;25.386;2024-03-02T07:02:00;96798.56;;;7.74;100.00
8061;BME280;4073;42.626;25.386;2024-03-02T07:04:27;96810.03;;;7.80;100.00
8061;BME280;4073;42.626;25.386;2024-03-02T07:06:52;96797.00;;;7.83;100.00
8061;BME280;4073;42.626;25.386;2024-03-02T07:09:18;96794.84;;;7.75;100.00
8061;BME280;4073;42.626;25.386;2024-03-02T07:11:43;96806.28;;;7.76;100.00
8061;BME280;4073;42.626;25.386;2024-03-02T07:14:09;96812.69;;;7.80;100.00
8061;BME280;4073;42.626;25.386;2024-03-02T07:16:37;96794.84;;;7.80;100.00
8061;BME280;4073;42.626;25.386;2024-03-02T07:19:03;96762.13;;;7.75;100.00
8061;BME280;4073;42.626;25.386;2024-03-02T07:21:29;96793.53;;;7.78;100.00
8061;BME280;4073;42.626;25.386;2024-03-02T07:23:54;96792.97;;;7.76;100.00
8061;BME280;4073;42.626;25.386;2024-03-02T07:26:20;96763.41;;;7.67;100.00
8061;BME280;4073;42.626;25.386;2024-03-02T07:28:46;96773.53;;;7.60;100.00
8061;BME280;4073;42.626;25.386;2024-03-02T07:31:13;96761.31;;;7.69;100.00
8061;BME280;4073;42.626;25.386;2024-03-02T07:33:39;96748.81;;;7.70;100.00
8061;BME280;4073;42.626;25.386;2024-03-02T07:36:04;96756.50;;;7.66;100.00
8061;BME280;4073;42.626;25.386;2024-03-02T07:38:30;96756.81;;;7.70;100.00
8061;BME280;4073;42.626;25.386;2024-03-02T07:40:57;96759.47;;;7.75;100.00
8061;BME280;4073;42.626;25.386;2024-03-02T07:43:23;96782.34;;;7.71;100.00
8061;BME280;4073;42.626;25.386;2024-03-02T07:45:49;96776.22;;;7.80;100.00
8061;BME280;4073;42.626;25.386;2024-03-02T07:48:15;96764.25;;;7.78;100.00
8061;BME280;4073;42.626;25.386;2024-03-02T07:50:40;96787.44;;;7.97;100.00
8061;BME280;4073;42.626;25.386;2024-03-02T07:53:06;96794.13;;;8.05;100.00
8061;BME280;4073;42.626;25.386;2024-03-02T07:55:33;96798.09;;;8.07;100.00
8061;BME280;4073;42.626;25.386;2024-03-02T07:57:58;96808.22;;;8.11;100.00
8061;BME280;4073;42.626;25.386;2024-03-02T08:00:24;96791.44;;;8.05;100.00
8061;BME280;4073;42.626;25.386;2024-03-02T08:02:51;96771.47;;;8.07;100.00
8061;BME280;4073;42.626;25.386;2024-03-02T08:05:17;96778.41;;;8.14;100.00
8061;BME280;4073;42.626;25.386;2024-03-02T08:07:46;96785.66;;;8.28;100.00
8061;BME280;4073;42.626;25.386;2024-03-02T08:10:13;96777.41;;;8.30;100.00
8061;BME280;4073;42.626;25.386;2024-03-02T08:12:38;96775.78;;;8.29;100.00
8061;BME280;4073;42.626;25.386;2024-03-02T08:15:04;96764.88;;;8.25;100.00
8061;BME280;4073;42.626;25.386;2024-03-02T08:17:30;96775.53;;;8.35;100.00
8061;BME280;4073;42.626;25.386;2024-03-02T08:19:56;96795.50;;;8.43;100.00
8061;BME280;4073;42.626;25.386;2024-03-02T08:22:22;96800.28;;;8.51;100.00
8061;BME280;4073;42.626;25.386;2024-03-02T08:24:50;96794.94;;;8.56;100.00
8061;BME280;4073;42.626;25.386;2024-03-02T08:27:16;96798.69;;;8.65;100.00
8061;BME280;4073;42.626;25.386;2024-03-02T08:29:42;96806.16;;;8.68;100.00
8061;BME280;4073;42.626;25.386;2024-03-02T08:32:07;96794.69;;;8.67;100.00
8061;BME280;4073;42.626;25.386;2024-03-02T08:34:33;96776.31;;;8.61;100.00
8061;BME280;4073;42.626;25.386;2024-03-02T08:37:02;96787.47;;;8.63;100.00
8061;BME280;4073;42.626;25.386;2024-03-02T08:39:28;96797.09;;;8.64;100.00
8061;BME280;4073;42.626;25.386;2024-03-02T08:41:54;96787.75;;;8.66;100.00
8061;BME280;4073;42.626;25.386;2024-03-02T08:44:20;96779.22;;;8.64;100.00
8061;BME280;4073;42.626;25.386;2024-03-02T08:46:45;96784.03;;;8.72;100.00
8061;BME280;4073;42.626;25.386;2024-03-02T08:49:12;96784.28;;;8.76;100.00
8061;BME280;4073;42.626;25.386;2024-03-02T08:51:37;96815.22;;;8.77;100.00
8061;BME280;4073;42.626;25.386;2024-03-02T08:54:03;96816.81;;;8.78;100.00
8061;BME280;4073;42.626;25.386;2024-03-02T08:56:30;96786.16;;;8.60;100.00
8061;BME280;4073;42.626;25.386;2024-03-02T08:58:55;96790.38;;;8.81;100.00
8061;BME280;4073;42.626;25.386;2024-03-02T09:01:21;96791.19;;;8.92;100.00
8061;BME280;4073;42.626;25.386;2024-03-02T09:03:46;96779.41;;;9.03;100.00
8061;BME280;4073;42.626;25.386;2024-03-02T09:06:13;96767.13;;;9.12;100.00
8061;BME280;4073;42.626;25.386;2024-03-02T09:08:39;96757.53;;;9.16;100.00
8061;BME280;4073;42.626;25.386;2024-03-02T09:11:05;96771.13;;;9.14;100.00
8061;BME280;4073;42.626;25.386;2024-03-02T09:13:32;96758.88;;;9.08;100.00
8061;BME280;4073;42.626;25.386;2024-03-02T09:15:58;96804.44;;;9.22;100.00
8061;BME280;4073;42.626;25.386;2024-03-02T09:18:23;96804.97;;;9.24;100.00
8061;BME280;4073;42.626;25.386;2024-03-02T09:20:49;96788.13;;;9.28;100.00
8061;BME280;4073;42.626;25.386;2024-03-02T09:23:14;96778.00;;;9.30;100.00
8061;BME280;4073;42.626;25.386;2024-03-02T09:25:40;96772.38;;;9.42;100.00
8061;BME280;4073;42.626;25.386;2024-03-02T09:28:05;96758.97;;;9.52;100.00
8061;BME280;4073;42.626;25.386;2024-03-02T09:30:32;96758.22;;;9.46;100.00
8061;BME280;4073;42.626;25.386;2024-03-02T09:32:57;96776.03;;;9.56;100.00
8061;BME280;4073;42.626;25.386;2024-03-02T09:35:23;96785.31;;;9.68;100.00
8061;BME280;4073;42.626;25.386;2024-03-02T09:37:48;96782.84;;;9.82;100.00
8061;BME280;4073;42.626;25.386;2024-03-02T09:40:14;96761.94;;;9.94;100.00
8061;BME280;4073;42.626;25.386;2024-03-02T09:42:41;96763.63;;;9.80;100.00
8061;BME280;4073;42.626;25.386;2024-03-02T09:45:09;96797.22;;;9.86;100.00
8061;BME280;4073;42.626;25.386;2024-03-02T09:47:35;96758.97;;;9.95;100.00
8061;BME280;4073;42.626;25.386;2024-03-02T09:50:01;96741.88;;;9.96;100.00
8061;BME280;4073;42.626;25.386;2024-03-02T09:52:27;96743.97;;;10.04;100.00
8061;BME280;4073;42.626;25.386;2024-03-02T09:54:52;96738.59;;;10.14;100.00
8061;BME280;4073;42.626;25.386;2024-03-02T09:57:18;96734.16;;;10.33;100.00
8061;BME280;4073;42.626;25.386;2024-03-02T09:59:43;96736.19;;;10.46;100.00
8061;BME280;4073;42.626;25.386;2024-03-02T10:02:10;96744.34;;;10.60;100.00
8061;BME280;4073;42.626;25.386;2024-03-02T10:04:36;96739.97;;;10.69;100.00
8061;BME280;4073;42.626;25.386;2024-03-02T10:07:11;96745.84;;;10.71;100.00
8061;BME280;4073;42.626;25.386;2024-03-02T10:09:37;96767.69;;;10.78;100.00
8061;BME280;4073;42.626;25.386;2024-03-02T10:12:04;96759.16;;;10.76;100.00
8061;BME280;4073;42.626;25.386;2024-03-02T10:14:30;96754.38;;;10.73;100.00
8061;BME280;4073;42.626;25.386;2024-03-02T10:17:13;96764.50;;;10.76;100.00
8061;BME280;4073;42.626;25.386;2024-03-02T10:19:40;96760.59;;;10.69;100.00
8061;BME280;4073;42.626;25.386;2024-03-02T10:22:08;96748.81;;;10.70;100.00
8061;BME280;4073;42.626;25.386;2024-03-02T10:24:38;96751.19;;;10.71;100.00
8061;BME280;4073;42.626;25.386;2024-03-02T10:27:30;96757.59;;;10.70;100.00
8061;BME280;4073;42.626;25.386;2024-03-02T10:29:59;96754.16;;;10.70;100.00
8061;BME280;4073;42.626;25.386;2024-03-02T10:32:25;96760.28;;;10.70;100.00
8061;BME280;4073;42.626;25.386;2024-03-02T10:34:51;96753.63;;;10.68;100.00
8061;BME280;4073;42.626;25.386;2024-03-02T10:37:17;96751.03;;;10.57;100.00
8061;BME280;4073;42.626;25.386;2024-03-02T10:39:42;96756.91;;;10.60;100.00
8061;BME280;4073;42.626;25.386;2024-03-02T10:42:09;96763.28;;;10.64;100.00
8061;BME280;4073;42.626;25.386;2024-03-02T10:44:35;96754.53;;;10.58;100.00
8061;BME280;4073;42.626;25.386;2024-03-02T10:47:02;96749.09;;;10.63;100.00
8061;BME280;4073;42.626;25.386;2024-03-02T10:49:32;96760.28;;;10.70;100.00
8061;BME280;4073;42.626;25.386;2024-03-02T10:52:01;96749.81;;;10.74;100.00
8061;BME280;4073;42.626;25.386;2024-03-02T10:54:26;96753.25;;;10.79;100.00
8061;BME280;4073;42.626;25.386;2024-03-02T10:56:55;96754.06;;;10.80;100.00
8061;BME280;4073;42.626;25.386;2024-03-02T10:59:34;96738.00;;;10.80;100.00
8061;BME280;4073;42.626;25.386;2024-03-02T11:02:01;96738.47;;;10.87;100.00
8061;BME280;4073;42.626;25.386;2024-03-02T11:04:28;96736.53;;;10.92;100.00
8061;BME280;4073;42.626;25.386;2024-03-02T11:09:28;96722.47;;;11.05;100.00
8061;BME280;4073;42.626;25.386;2024-03-02T11:12:11;96722.38;;;11.15;100.00
8061;BME280;4073;42.626;25.386;2024-03-02T11:14:40;96712.44;;;11.16;100.00
8061;BME280;4073;42.626;25.386;2024-03-02T11:17:09;96722.75;;;11.27;100.00
8061;BME280;4073;42.626;25.386;2024-03-02T11:19:39;96726.44;;;11.31;100.00
8061;BME280;4073;42.626;25.386;2024-03-02T11:22:06;96725.88;;;11.34;100.00
8061;BME280;4073;42.626;25.386;2024-03-02T11:24:32;96724.84;;;11.30;100.00
8061;BME280;4073;42.626;25.386;2024-03-02T11:27:02;96712.84;;;11.28;100.00
8061;BME280;4073;42.626;25.386;2024-03-02T11:32:15;96720.63;;;11.24;100.00
8061;BME280;4073;42.626;25.386;2024-03-02T11:34:44;96716.91;;;11.25;100.00
8061;BME280;4073;42.626;25.386;2024-03-02T11:37:14;96712.78;;;11.33;100.00
8061;BME280;4073;42.626;25.386;2024-03-02T11:39:40;96710.84;;;11.38;100.00
8061;BME280;4073;42.626;25.386;2024-03-02T11:42:09;96695.53;;;11.44;100.00
8061;BME280;4073;42.626;25.386;2024-03-02T11:44:38;96706.09;;;11.54;100.00
8061;BME280;4073;42.626;25.386;2024-03-02T11:47:08;96706.75;;;11.64;100.00
8061;BME280;4073;42.626;25.386;2024-03-02T11:49:49;96710.31;;;11.78;100.00
8061;BME280;4073;42.626;25.386;2024-03-02T11:52:16;96712.50;;;11.76;100.00
8061;BME280;4073;42.626;25.386;2024-03-02T11:54:44;96708.34;;;11.84;100.00
8061;BME280;4073;42.626;25.386;2024-03-02T11:57:18;96703.50;;;11.86;100.00
8061;BME280;4073;42.626;25.386;2024-03-02T11:59:45;96704.16;;;11.96;100.00
8061;BME280;4073;42.626;25.386;2024-03-02T12:02:21;96702.09;;;12.07;100.00
8061;BME280;4073;42.626;25.386;2024-03-02T12:04:47;96690.66;;;12.20;100.00
8061;BME280;4073;42.626;25.386;2024-03-02T12:07:20;96686.13;;;12.34;100.00
8061;BME280;4073;42.626;25.386;2024-03-02T12:09:59;96684.56;;;12.46;100.00
8061;BME280;4073;42.626;25.386;2024-03-02T12:12:25;96685.88;;;12.62;100.00
8061;BME280;4073;42.626;25.386;2024-03-02T12:14:52;96685.63;;;12.77;100.00
8061;BME280;4073;42.626;25.386;2024-03-02T12:17:20;96675.78;;;12.86;100.00
8061;BME280;4073;42.626;25.386;2024-03-02T12:19:46;96671.22;;;12.87;100.00
8061;BME280;4073;42.626;25.386;2024-03-02T12:22:12;96678.06;;;12.66;100.00
8061;BME280;4073;42.626;25.386;2024-03-02T12:24:37;96669.72;;;12.81;100.00
8061;BME280;4073;42.626;25.386;2024-03-02T12:27:04;96672.09;;;12.96;100.00
8061;BME280;4073;42.626;25.386;2024-03-02T12:29:30;96660.06;;;12.93;100.00
8061;BME280;4073;42.626;25.386;2024-03-02T12:31:56;96665.28;;;13.17;100.00
8061;BME280;4073;42.626;25.386;2024-03-02T12:34:22;96675.50;;;13.29;100.00
8061;BME280;4073;42.626;25.386;2024-03-02T12:36:48;96676.19;;;13.34;100.00
8061;BME280;4073;42.626;25.386;2024-03-02T12:39:21;96678.47;;;13.41;100.00
8061;BME280;4073;42.626;25.386;2024-03-02T12:41:50;96668.75;;;13.31;100.00
8061;BME280;4073;42.626;25.386;2024-03-02T12:44:19;96674.00;;;13.36;100.00
8061;BME280;4073;42.626;25.386;2024-03-02T12:46:46;96652.56;;;13.23;100.00
8061;BME280;4073;42.626;25.386;2024-03-02T12:49:13;96674.59;;;13.33;100.00
8061;BME280;4073;42.626;25.386;2024-03-02T12:51:42;96680.25;;;13.32;100.00
8061;BME280;4073;42.626;25.386;2024-03-02T12:54:09;96684.66;;;13.14;100.00
8061;BME280;4073;42.626;25.386;2024-03-02T12:56:36;96676.63;;;13.14;100.00
8061;BME280;4073;42.626;25.386;2024-03-02T12:59:03;96670.66;;;13.17;100.00
8061;BME280;4073;42.626;25.386;2024-03-02T13:01:28;96672.03;;;13.28;100.00
8061;BME280;4073;42.626;25.386;2024-03-02T13:03:54;96666.44;;;13.25;100.00
8061;BME280;4073;42.626;25.386;2024-03-02T13:06:23;96679.47;;;13.18;100.00
8061;BME280;4073;42.626;25.386;2024-03-02T13:08:49;96677.50;;;13.10;100.00
8061;BME280;4073;42.626;25.386;2024-03-02T13:11:16;96681.88;;;13.06;100.00
8061;BME280;4073;42.626;25.386;2024-03-02T13:13:42;96679.06;;;12.97;100.00